createdAt,value
2017-12-27T09:48:15.762Z,7.31
2017-12-27T09:49:23.981Z,7.15
2017-12-27T09:51:09.719Z,7.02
2017-12-27T09:52:09.693Z,6.81
2017-12-27T09:54:04.064Z,6.71
2017-12-27T09:55:04.068Z,6.54
2017-12-27T09:56:04.048Z,6.53
2017-12-27T09:57:04.046Z,6.35
2017-12-27T09:58:04.053Z,6.11
2017-12-27T09:59:04.074Z,6.14
2017-12-27T10:00:04.039Z,6.00
2017-12-27T10:01:05.001Z,6.03
2017-12-27T10:02:04.041Z,6.07
2017-12-27T10:03:04.091Z,6.32
2017-12-27T10:04:04.031Z,6.40
2017-12-27T10:05:04.027Z,6.59
2017-12-27T10:06:04.047Z,6.71
2017-12-27T10:07:04.037Z,6.79
2017-12-27T10:08:04.023Z,6.77
2017-12-27T10:09:04.038Z,6.89
2017-12-27T10:10:04.036Z,6.89
2017-12-27T10:11:04.017Z,6.94
2017-12-27T10:12:04.036Z,6.84
2017-12-27T10:13:04.051Z,6.83
2017-12-27T10:14:04.014Z,7.08
2017-12-27T10:15:04.040Z,6.81
2017-12-27T10:16:06.625Z,6.91
2017-12-27T10:17:04.042Z,6.90
2017-12-27T10:18:04.036Z,7.16
2017-12-27T10:19:04.027Z,6.81
2017-12-27T10:20:04.032Z,6.48
2017-12-27T10:21:04.097Z,6.32
2017-12-27T10:22:04.793Z,6.14
2017-12-27T10:23:04.056Z,6.00
2017-12-27T10:24:04.064Z,5.82
2017-12-27T10:25:04.104Z,5.89
2017-12-27T10:26:04.100Z,6.01
2017-12-27T10:27:04.059Z,6.35
2017-12-27T10:28:04.004Z,6.63
2017-12-27T10:29:04.004Z,6.95
2017-12-27T10:30:04.663Z,6.83
2017-12-27T10:31:04.009Z,6.79
2017-12-27T10:32:04.011Z,6.63
2017-12-27T10:33:04.050Z,6.44
2017-12-27T10:34:04.028Z,6.38
2017-12-27T10:35:04.054Z,6.50
2017-12-27T10:36:04.035Z,6.51
2017-12-27T10:37:04.034Z,6.68
2017-12-27T10:38:04.030Z,6.79
2017-12-27T10:39:04.043Z,6.62
2017-12-27T10:40:04.021Z,6.43
2017-12-27T10:41:04.023Z,6.46
2017-12-27T10:42:04.022Z,6.41
2017-12-27T10:43:04.061Z,6.38
2017-12-27T10:44:04.008Z,6.30
2017-12-27T10:45:04.027Z,6.19
2017-12-27T10:46:04.028Z,6.19
2017-12-27T10:47:04.029Z,6.10
2017-12-27T10:48:04.004Z,6.11
2017-12-27T10:49:04.024Z,6.13
2017-12-27T10:50:04.076Z,6.16
2017-12-27T10:51:04.015Z,6.13
2017-12-27T10:52:04.030Z,5.96
2017-12-27T10:53:04.029Z,5.95
2017-12-27T10:54:04.004Z,5.95
2017-12-27T10:55:04.007Z,5.88
2017-12-27T10:56:04.009Z,5.88
2017-12-27T10:57:04.024Z,5.88
2017-12-27T10:58:04.075Z,5.91
2017-12-27T10:59:04.032Z,5.93
2017-12-27T11:00:04.027Z,5.83
2017-12-27T11:01:04.237Z,5.93
2017-12-27T11:03:46.746Z,5.89
2017-12-27T11:04:45.946Z,5.85
2017-12-27T11:06:40.583Z,5.83
2017-12-27T11:07:40.445Z,5.77
2017-12-27T11:09:35.081Z,5.73
2017-12-27T11:10:34.718Z,5.68
2017-12-27T11:12:29.420Z,5.57
2017-12-27T11:13:29.416Z,5.57
2017-12-27T11:15:23.747Z,5.59
2017-12-27T11:16:23.746Z,5.63
2017-12-27T11:18:18.085Z,5.56
2017-12-27T11:19:17.671Z,5.46
2017-12-27T11:21:12.286Z,5.56
2017-12-27T11:22:12.249Z,5.53
2017-12-27T11:24:06.925Z,5.57
2017-12-27T11:25:06.496Z,5.55
2017-12-27T11:27:01.076Z,5.49
2017-12-27T11:28:00.916Z,5.50
2017-12-27T11:29:55.377Z,5.49
2017-12-27T11:30:55.349Z,5.43
2017-12-27T11:32:50.571Z,5.38
2017-12-27T11:33:50.505Z,5.46
2017-12-27T11:35:46.352Z,5.30
2017-12-27T11:36:45.921Z,5.38
2017-12-27T11:38:40.556Z,5.34
2017-12-27T11:39:42.792Z,5.37
2017-12-27T11:41:40.771Z,5.43
2017-12-27T11:42:38.476Z,5.35
2017-12-27T11:43:37.994Z,5.49
2017-12-27T11:44:37.403Z,5.43
2017-12-27T11:45:43.040Z,5.41
2017-12-27T11:46:54.591Z,5.48
2017-12-27T11:48:37.630Z,5.45
2017-12-27T11:49:39.387Z,5.56
2017-12-27T11:52:42.785Z,5.66
2017-12-27T11:53:42.146Z,5.56
2017-12-27T11:54:42.247Z,5.56
2017-12-27T11:55:42.133Z,5.66
2017-12-27T11:56:42.160Z,5.66
2017-12-27T11:57:42.006Z,5.68
2017-12-27T11:58:42.218Z,5.67
2017-12-27T11:59:42.454Z,5.74
2017-12-27T12:00:43.621Z,5.64
2017-12-27T12:01:42.791Z,5.60
2017-12-27T12:02:43.413Z,5.67
2017-12-27T12:04:42.181Z,5.56
2017-12-27T12:05:42.430Z,5.59
2017-12-27T12:06:45.758Z,5.63
2017-12-27T12:07:44.352Z,5.57
2017-12-27T12:08:42.186Z,5.57
2017-12-27T12:09:43.058Z,5.64
2017-12-27T12:10:42.810Z,5.71
2017-12-27T12:11:42.775Z,5.75
2017-12-27T12:12:43.287Z,5.75
2017-12-27T12:13:42.818Z,5.88
2017-12-27T12:14:42.806Z,5.93
2017-12-27T12:15:41.830Z,5.89
2017-12-27T12:16:41.831Z,5.82
2017-12-27T12:17:42.199Z,5.70
2017-12-27T12:18:42.199Z,5.70
2017-12-27T12:19:42.209Z,5.68
2017-12-27T12:20:41.814Z,5.66
2017-12-27T12:21:42.101Z,5.63
2017-12-27T12:22:42.196Z,5.67
2017-12-27T12:23:42.660Z,5.60
2017-12-27T12:24:42.022Z,5.55
2017-12-27T12:25:42.692Z,5.67
2017-12-27T12:26:42.066Z,5.64
2017-12-27T12:27:42.037Z,5.63
2017-12-27T12:28:42.206Z,5.70
2017-12-27T12:29:42.128Z,5.59
2017-12-27T12:30:42.054Z,5.55
2017-12-27T12:31:42.125Z,5.52
2017-12-27T12:32:41.741Z,5.48
2017-12-27T12:33:41.724Z,5.37
2017-12-27T12:34:41.724Z,5.43
2017-12-27T12:35:41.718Z,5.46
2017-12-27T12:36:41.720Z,5.27
2017-12-27T12:37:41.722Z,5.30
2017-12-27T12:38:41.719Z,5.37
2017-12-27T12:39:41.704Z,5.27
2017-12-27T12:40:41.702Z,5.35
2017-12-27T12:41:41.698Z,5.34
2017-12-27T12:42:41.713Z,5.40
2017-12-27T12:43:41.694Z,5.27
2017-12-27T12:48:12.049Z,5.14
2017-12-27T12:49:14.256Z,5.13
2017-12-27T12:51:08.186Z,5.16
2017-12-27T12:52:08.159Z,5.05
2017-12-27T12:54:02.011Z,5.01
2017-12-27T12:55:02.502Z,4.91
2017-12-27T12:56:56.398Z,4.80
2017-12-27T12:57:56.374Z,4.84
2017-12-27T12:59:51.761Z,4.83
2017-12-27T13:00:52.270Z,4.86
2017-12-27T13:02:46.178Z,4.76
2017-12-27T13:03:46.152Z,4.79
2017-12-27T13:06:09.642Z,4.67
2017-12-27T13:12:15.688Z,4.64
2017-12-27T13:43:26.764Z,4.34
2017-12-27T13:44:17.378Z,4.33
2017-12-27T13:45:17.478Z,4.29
2017-12-27T13:46:15.400Z,4.28
2017-12-27T13:47:16.567Z,4.26
2017-12-27T13:48:15.870Z,4.39
2017-12-27T13:49:26.641Z,4.36
2017-12-27T13:50:17.527Z,4.28
2017-12-27T13:54:56.252Z,4.22
2017-12-27T13:57:47.240Z,4.24
2017-12-27T14:03:29.028Z,4.04
2017-12-27T14:28:16.817Z,4.10
2017-12-27T15:29:05.104Z,3.70
2017-12-27T15:30:00.905Z,3.62
2017-12-27T15:31:10.815Z,3.70
2017-12-27T17:33:40.843Z,3.71
2017-12-27T18:27:34.500Z,3.67
2017-12-27T18:32:38.308Z,3.71
2017-12-27T18:33:37.253Z,3.71
2017-12-27T18:40:28.022Z,3.79
2017-12-27T18:41:13.197Z,3.85
2017-12-27T18:49:58.503Z,3.98
2017-12-27T18:50:59.327Z,3.90
2017-12-27T18:52:52.349Z,3.89
2017-12-27T18:53:52.257Z,3.89
2017-12-27T18:55:46.625Z,3.86
2017-12-27T18:56:46.581Z,3.79
2017-12-27T18:58:41.016Z,3.83
2017-12-27T18:59:40.993Z,3.85
2017-12-27T19:01:35.360Z,3.80
2017-12-27T19:02:35.109Z,3.76
2017-12-27T19:04:29.766Z,3.71
2017-12-27T19:05:29.743Z,3.71
2017-12-27T19:07:24.080Z,3.70
2017-12-27T19:08:23.900Z,3.65
2017-12-27T19:10:18.432Z,3.67
2017-12-27T19:11:18.347Z,3.65
2017-12-27T19:13:12.835Z,3.68
2017-12-27T19:14:12.420Z,3.67
2017-12-27T19:16:08.041Z,3.65
2017-12-27T19:17:07.979Z,3.72
2017-12-27T19:19:03.347Z,3.70
2017-12-27T19:20:03.063Z,3.65
2017-12-27T19:21:57.738Z,3.75
2017-12-27T19:22:57.411Z,3.68
2017-12-27T19:24:52.096Z,3.71
2017-12-27T19:25:51.920Z,3.67
2017-12-27T19:27:46.387Z,3.71
2017-12-27T19:28:46.114Z,3.68
2017-12-27T19:30:40.373Z,3.65
2017-12-27T19:31:40.058Z,3.65
2017-12-27T19:33:34.800Z,3.71
2017-12-27T19:34:34.387Z,3.71
2017-12-27T19:36:28.821Z,3.79
2017-12-27T19:37:28.752Z,3.72
2017-12-27T19:39:23.210Z,3.83
2017-12-27T19:40:23.151Z,3.71
2017-12-27T19:42:17.783Z,3.80
2017-12-27T19:43:17.410Z,3.82
2017-12-27T19:45:12.051Z,3.85
2017-12-27T19:46:11.828Z,3.82
2017-12-27T19:48:07.166Z,3.86
2017-12-27T19:49:07.392Z,3.76
2017-12-27T19:51:01.752Z,3.92
2017-12-27T19:52:01.753Z,3.88
2017-12-27T19:53:56.162Z,3.90
2017-12-27T19:54:55.824Z,3.86
2017-12-27T19:56:50.572Z,3.90
2017-12-27T19:57:50.228Z,3.89
2017-12-27T19:59:45.048Z,3.90
2017-12-27T20:00:45.497Z,3.89
2017-12-27T20:02:39.217Z,3.97
2017-12-27T20:03:39.184Z,4.00
2017-12-27T20:05:33.561Z,4.06
2017-12-27T20:06:33.251Z,4.06
2017-12-27T20:07:33.560Z,4.01
2017-12-27T20:08:33.538Z,4.01
2017-12-27T20:09:33.475Z,4.06
2017-12-27T20:10:33.468Z,4.00
2017-12-27T20:11:33.447Z,3.89
2017-12-27T20:12:33.234Z,3.90
2017-12-27T20:13:33.447Z,3.94
2017-12-27T20:14:33.472Z,3.90
2017-12-27T20:15:33.480Z,3.83
2017-12-27T20:16:33.429Z,3.80
2017-12-27T20:17:33.492Z,3.85
2017-12-27T20:18:33.435Z,3.86
2017-12-27T20:19:33.455Z,3.78
2017-12-27T20:20:33.462Z,3.75
2017-12-27T20:21:33.392Z,3.72
2017-12-27T20:22:33.449Z,3.78
2017-12-27T20:23:33.434Z,3.82
2017-12-27T20:24:33.413Z,3.70
2017-12-27T20:25:33.171Z,3.68
2017-12-27T20:26:33.378Z,3.72
2017-12-27T20:27:33.397Z,3.70
2017-12-27T20:28:33.584Z,3.68
2017-12-27T20:29:33.505Z,3.71
2017-12-27T20:30:33.459Z,3.76
2017-12-27T20:31:33.455Z,3.78
2017-12-27T20:32:33.493Z,3.65
2017-12-27T20:33:33.380Z,3.62
2017-12-27T20:34:33.356Z,3.62
2017-12-27T20:35:33.385Z,3.57
2017-12-27T20:36:33.385Z,3.58
2017-12-27T20:37:33.375Z,3.58
2017-12-27T20:38:33.396Z,3.57
2017-12-27T20:39:33.347Z,3.42
2017-12-27T20:40:33.358Z,3.44
2017-12-27T20:41:33.315Z,3.46
2017-12-27T20:42:33.350Z,3.33
2017-12-27T20:43:33.344Z,3.33
2017-12-27T20:44:33.331Z,3.31
2017-12-27T20:45:33.360Z,3.30
2017-12-27T20:46:33.340Z,3.34
2017-12-27T20:47:33.305Z,3.44
2017-12-27T20:48:33.291Z,3.42
2017-12-27T20:49:33.346Z,3.42
2017-12-27T20:50:33.244Z,3.44
2017-12-27T20:51:33.058Z,3.54
2017-12-27T20:52:33.048Z,3.54
2017-12-27T20:53:33.067Z,3.58
2017-12-27T20:54:33.040Z,3.60
2017-12-27T20:55:33.295Z,3.57
2017-12-27T20:56:33.332Z,3.61
2017-12-27T20:57:33.364Z,3.62
2017-12-27T20:58:33.466Z,3.54
2017-12-27T20:59:33.304Z,3.53
2017-12-27T21:00:33.014Z,3.57
2017-12-27T21:01:33.219Z,3.60
2017-12-27T21:02:32.983Z,3.57
2017-12-27T21:03:35.794Z,3.58
2017-12-27T21:04:32.977Z,3.58
2017-12-27T21:05:32.968Z,3.60
2017-12-27T21:06:32.964Z,3.57
2017-12-27T21:07:32.961Z,3.65
2017-12-27T21:08:32.956Z,3.67
2017-12-27T21:09:32.951Z,3.71
2017-12-27T21:10:32.944Z,3.64
2017-12-27T21:11:32.945Z,3.78
2017-12-27T21:12:32.938Z,3.78
2017-12-27T21:13:32.946Z,3.85
2017-12-27T21:14:32.934Z,3.79
2017-12-27T21:15:32.923Z,3.72
2017-12-27T21:16:32.920Z,3.76
2017-12-27T21:17:32.914Z,3.71
2017-12-27T21:18:32.914Z,3.76
2017-12-27T21:19:32.907Z,3.76
2017-12-27T21:20:32.897Z,3.72
2017-12-27T21:21:32.894Z,3.71
2017-12-27T21:22:32.891Z,3.71
2017-12-27T21:23:32.888Z,3.68
2017-12-27T21:24:32.886Z,3.71
2017-12-27T21:25:32.877Z,3.64
2017-12-27T21:26:32.870Z,3.62
2017-12-27T21:27:32.867Z,3.61
2017-12-27T21:28:32.863Z,3.58
2017-12-27T21:29:32.858Z,3.65
2017-12-27T21:30:32.852Z,3.57
2017-12-27T21:31:32.846Z,3.67
2017-12-27T21:32:32.841Z,3.67
2017-12-27T21:33:32.838Z,3.75
2017-12-27T21:34:32.838Z,3.68
2017-12-27T21:35:32.829Z,3.68
2017-12-27T21:36:32.825Z,3.62
2017-12-27T21:37:32.819Z,3.78
2017-12-27T21:38:32.813Z,3.70
2017-12-27T21:39:32.835Z,3.72
2017-12-27T21:40:32.809Z,3.70
2017-12-27T21:41:32.800Z,3.75
2017-12-27T21:42:32.795Z,3.62
2017-12-27T21:43:32.793Z,3.71
2017-12-27T21:44:32.785Z,3.76
2017-12-27T21:45:32.780Z,3.76
2017-12-27T21:46:32.779Z,3.78
2017-12-27T21:47:32.773Z,3.78
2017-12-27T21:48:32.766Z,3.75
2017-12-27T21:49:32.764Z,3.75
2017-12-27T21:50:32.759Z,3.76
2017-12-27T21:51:32.757Z,3.76
2017-12-27T21:52:32.752Z,3.72
2017-12-27T21:53:32.745Z,3.70
2017-12-27T21:54:32.746Z,3.76
2017-12-27T21:55:32.736Z,3.80
2017-12-27T21:56:32.729Z,3.75
2017-12-27T21:57:32.728Z,3.65
2017-12-27T21:58:32.723Z,3.70
2017-12-27T21:59:32.718Z,3.72
2017-12-27T22:00:32.711Z,3.65
2017-12-27T22:01:32.704Z,3.58
2017-12-27T22:02:32.703Z,3.60
2017-12-27T22:03:32.700Z,3.58
2017-12-27T22:04:32.693Z,3.43
2017-12-27T22:05:32.686Z,3.52
2017-12-27T22:06:32.684Z,3.57
2017-12-27T22:07:32.686Z,3.52
2017-12-27T22:08:32.675Z,3.43
2017-12-27T22:09:32.670Z,3.40
2017-12-27T22:10:32.667Z,3.58
2017-12-27T22:11:32.662Z,3.44
2017-12-27T22:12:32.657Z,3.43
2017-12-27T22:13:32.660Z,3.52
2017-12-27T22:14:32.646Z,3.40
2017-12-27T22:15:32.690Z,3.49
2017-12-27T22:16:32.639Z,3.46
2017-12-27T22:17:32.634Z,3.44
2017-12-27T22:18:32.625Z,3.44
2017-12-27T22:19:32.625Z,3.47
2017-12-27T22:20:32.616Z,3.43
2017-12-27T22:21:32.616Z,3.46
2017-12-27T22:22:32.611Z,3.43
2017-12-27T22:23:32.606Z,3.47
2017-12-27T22:24:32.601Z,3.46
2017-12-27T22:25:32.594Z,3.40
2017-12-27T22:26:32.595Z,3.47
2017-12-27T22:27:32.587Z,3.33
2017-12-27T22:28:32.580Z,3.33
2017-12-27T22:29:32.582Z,3.31
2017-12-27T22:30:32.573Z,3.30
2017-12-27T22:31:32.567Z,3.30
2017-12-27T22:32:32.565Z,3.33
2017-12-27T22:33:32.561Z,3.33
2017-12-27T22:34:32.555Z,3.44
2017-12-27T22:35:32.548Z,3.49
2017-12-27T22:36:32.546Z,3.44
2017-12-27T22:37:32.542Z,3.42
2017-12-27T22:38:32.536Z,3.44
2017-12-27T22:39:32.531Z,3.53
2017-12-27T22:40:32.525Z,3.58
2017-12-27T22:41:32.525Z,3.57
2017-12-27T22:42:32.520Z,3.53
2017-12-27T22:43:32.510Z,3.60
2017-12-27T22:44:32.506Z,3.62
2017-12-27T22:45:32.505Z,3.54
2017-12-27T22:46:32.497Z,3.57
2017-12-27T22:47:32.503Z,3.65
2017-12-27T22:48:32.483Z,3.61
2017-12-27T22:49:32.482Z,3.61
2017-12-27T22:50:32.479Z,3.54
2017-12-27T22:51:32.475Z,3.65
2017-12-27T22:52:32.470Z,3.65
2017-12-27T22:53:32.465Z,3.62
2017-12-27T22:54:32.461Z,3.54
2017-12-27T22:55:32.455Z,3.61
2017-12-27T22:56:32.450Z,3.58
2017-12-27T22:57:32.446Z,3.54
2017-12-27T22:58:32.445Z,3.61
2017-12-27T22:59:32.435Z,3.52
2017-12-27T23:00:32.432Z,3.57
2017-12-27T23:01:32.427Z,3.60
2017-12-27T23:02:32.421Z,3.62
2017-12-27T23:03:32.418Z,3.60
2017-12-27T23:04:32.414Z,3.57
2017-12-27T23:05:32.414Z,3.61
2017-12-27T23:06:32.405Z,3.54
2017-12-27T23:07:32.396Z,3.58
2017-12-27T23:08:32.400Z,3.54
2017-12-27T23:09:32.392Z,3.57
2017-12-27T23:10:32.389Z,3.57
2017-12-27T23:11:32.379Z,3.47
2017-12-27T23:12:32.376Z,3.44
2017-12-27T23:13:32.378Z,3.43
2017-12-27T23:14:32.368Z,3.42
2017-12-27T23:15:32.362Z,3.43
2017-12-27T23:16:32.361Z,3.40
2017-12-27T23:17:32.353Z,3.39
2017-12-27T23:18:32.349Z,3.40
2017-12-27T23:19:32.344Z,3.40
2017-12-27T23:20:32.338Z,3.43
2017-12-27T23:21:32.335Z,3.42
2017-12-27T23:22:32.329Z,3.44
2017-12-27T23:23:32.325Z,3.44
2017-12-27T23:24:32.318Z,3.40
2017-12-27T23:25:32.314Z,3.34
2017-12-27T23:26:32.310Z,3.36
2017-12-27T23:27:32.310Z,3.33
2017-12-27T23:28:32.299Z,3.33
2017-12-27T23:29:32.295Z,3.39
2017-12-27T23:30:32.295Z,3.31
2017-12-27T23:31:32.288Z,3.39
2017-12-27T23:32:32.285Z,3.24
2017-12-27T23:33:33.802Z,3.24
2017-12-27T23:34:32.275Z,3.25
2017-12-27T23:35:32.267Z,3.23
2017-12-27T23:36:32.264Z,3.23
2017-12-27T23:37:32.263Z,3.15
2017-12-27T23:38:32.255Z,3.21
2017-12-27T23:39:32.256Z,3.06
2017-12-27T23:40:32.248Z,3.05
2017-12-27T23:41:32.243Z,3.06
2017-12-27T23:42:32.235Z,3.06
2017-12-27T23:43:32.238Z,3.07
2017-12-27T23:44:32.225Z,3.09
2017-12-27T23:45:32.222Z,3.00
2017-12-27T23:46:32.220Z,2.91
2017-12-27T23:47:32.213Z,2.97
2017-12-27T23:48:32.206Z,2.84
2017-12-27T23:49:32.205Z,2.87
2017-12-27T23:50:32.197Z,2.87
2017-12-27T23:51:32.193Z,2.87
2017-12-27T23:52:32.188Z,2.85
2017-12-27T23:53:32.182Z,2.76
2017-12-27T23:54:32.182Z,2.76
2017-12-27T23:55:32.175Z,2.77
2017-12-27T23:56:32.183Z,2.69
2017-12-27T23:57:32.169Z,2.67
2017-12-27T23:58:32.159Z,2.71
2017-12-27T23:59:32.160Z,2.61
